« Back
NWS Peachtree City, Ga » Text Product » CSG Terminal Aerodrome Forecast


Printer-friendly Version
Current Version              Previous Versions:   1  2  3  4  5  6  7  8  9  

Terminal Aerodrome Forecast

634
FTUS42 KFFC 272333
TAFCSG
TAF
KCSG 272333Z 2800/2824 VRB03KT P6SM BKN040
      TEMPO 2800/2803 2SM TSRA BR BKN025CB
     FM280500 VRB03KT P6SM SCT020 BKN080
     FM281000 VRB03KT P6SM BKN015
     FM281400 14003KT P6SM BKN025 PROB30 2818/2824 3SM -TSRA
      BKN030CB=

USA.gov is the U.S. government's official web portal to all federal, state and local government web resources and services.